createdAt,value
2022-12-22T00:00:23.805Z,100422.34
2022-12-22T00:03:09.382Z,100408.31
2022-12-22T00:05:55.266Z,100418.84
2022-12-22T00:08:40.963Z,100413.59
2022-12-22T00:11:30.383Z,100408.34
2022-12-22T00:14:16.646Z,100409.22
2022-12-22T00:17:02.276Z,100401.31
2022-12-22T00:19:48.538Z,100393.47
2022-12-22T00:22:43.309Z,100389.16
2022-12-22T00:25:34.520Z,100385.63
2022-12-22T00:28:31.817Z,100385.63
2022-12-22T00:31:17.310Z,100383.00
2022-12-22T00:34:02.870Z,100371.63
2022-12-22T00:36:48.905Z,100378.66
2022-12-22T00:39:34.724Z,100365.53
2022-12-22T00:42:20.283Z,100367.31
2022-12-22T00:45:05.820Z,100365.59
2022-12-22T00:47:51.226Z,100364.72
2022-12-22T00:50:37.324Z,100362.97
2022-12-22T00:53:23.373Z,100345.47
2022-12-22T00:56:09.343Z,100334.97
2022-12-22T00:58:55.418Z,100331.47
2022-12-22T01:01:41.911Z,100327.13
2022-12-22T01:04:30.704Z,100325.38
2022-12-22T01:07:16.919Z,100318.41
2022-12-22T01:10:09.432Z,100318.41
2022-12-22T01:12:57.763Z,100320.16
2022-12-22T01:15:45.873Z,100317.53
2022-12-22T01:18:31.261Z,100317.50
2022-12-22T01:21:17.310Z,100310.53
2022-12-22T01:24:03.816Z,100314.91
2022-12-22T01:26:49.881Z,100304.41
2022-12-22T01:29:35.752Z,100295.69
2022-12-22T01:32:21.362Z,100287.78
2022-12-22T01:35:07.249Z,100300.03
2022-12-22T01:37:53.060Z,100289.53
2022-12-22T01:40:43.480Z,100292.19
2022-12-22T01:43:43.665Z,100286.94
2022-12-22T01:47:03.354Z,100274.69
2022-12-22T01:50:00.944Z,100279.06
2022-12-22T01:52:54.314Z,100280.84
2022-12-22T01:55:43.272Z,100279.94
2022-12-22T01:58:45.550Z,100286.09
2022-12-22T02:01:31.135Z,100285.19
2022-12-22T02:04:16.884Z,100279.06
2022-12-22T02:07:05.565Z,100277.31
2022-12-22T02:10:19.561Z,100277.34
2022-12-22T02:13:58.139Z,100279.09
2022-12-22T02:17:09.834Z,100271.22
2022-12-22T02:20:25.501Z,100266.84
2022-12-22T02:23:33.649Z,100272.13
2022-12-22T02:26:52.977Z,100267.78
2022-12-22T02:29:45.490Z,100267.75
2022-12-22T02:32:32.183Z,100266.91
2022-12-22T02:35:17.551Z,100256.38
2022-12-22T02:38:23.823Z,100257.28
2022-12-22T02:41:34.564Z,100250.28
2022-12-22T02:44:50.506Z,100249.34
2022-12-22T02:48:15.900Z,100239.72
2022-12-22T02:51:08.402Z,100249.34
2022-12-22T02:53:54.242Z,100230.09
2022-12-22T02:56:41.323Z,100232.72
2022-12-22T02:59:26.913Z,100220.47
2022-12-22T03:02:12.902Z,100221.34
2022-12-22T03:04:58.629Z,100218.72
2022-12-22T03:07:44.232Z,100216.09
2022-12-22T03:10:29.977Z,100218.72
2022-12-22T03:13:18.946Z,100209.09
2022-12-22T03:16:04.405Z,100208.22
2022-12-22T03:18:49.877Z,100202.94
2022-12-22T03:21:35.727Z,100203.81
2022-12-22T03:24:21.380Z,100200.28
2022-12-22T03:26:48.426Z,100205.53
2022-12-22T03:29:15.507Z,100190.66
2022-12-22T03:31:42.723Z,100203.78
2022-12-22T03:34:10.029Z,100198.56
2022-12-22T03:36:37.006Z,100195.03
2022-12-22T03:39:04.245Z,100195.91
2022-12-22T03:41:50.186Z,100192.38
2022-12-22T03:44:35.706Z,100195.94
2022-12-22T03:47:02.768Z,100185.41
2022-12-22T03:49:29.877Z,100192.38
2022-12-22T03:51:56.823Z,100196.78
2022-12-22T03:54:26.049Z,100195.84
2022-12-22T03:56:53.727Z,100196.72
2022-12-22T03:59:21.104Z,100195.94
2022-12-22T04:01:52.829Z,100198.56
2022-12-22T04:04:23.416Z,100196.84
2022-12-22T04:06:50.846Z,100197.69
2022-12-22T04:09:17.941Z,100199.41
2022-12-22T04:12:03.689Z,100199.44
2022-12-22T04:14:34.295Z,100203.75
2022-12-22T04:17:04.457Z,100195.03
2022-12-22T04:19:32.437Z,100198.56
2022-12-22T04:21:59.886Z,100198.53
2022-12-22T04:24:26.920Z,100197.66
2022-12-22T04:26:53.996Z,100202.03
2022-12-22T04:29:21.057Z,100199.41
2022-12-22T04:31:48.081Z,100208.16
2022-12-22T04:34:15.087Z,100197.59
2022-12-22T04:36:42.036Z,100195.88
2022-12-22T04:39:09.067Z,100202.84
2022-12-22T04:41:36.085Z,100207.22
2022-12-22T04:44:03.139Z,100211.59
2022-12-22T04:46:30.345Z,100209.84
2022-12-22T04:49:00.219Z,100211.66
2022-12-22T04:51:28.664Z,100207.31
2022-12-22T04:53:56.079Z,100217.78
2022-12-22T04:56:23.058Z,100204.72
2022-12-22T04:58:50.050Z,100219.59
2022-12-22T05:01:18.962Z,100227.50
2022-12-22T05:03:46.287Z,100216.16
2022-12-22T05:06:13.831Z,100223.16
2022-12-22T05:08:40.877Z,100223.19
2022-12-22T05:11:08.328Z,100229.31
2022-12-22T05:13:35.402Z,100227.59
2022-12-22T05:16:12.079Z,100231.09
2022-12-22T05:18:40.920Z,100230.22
2022-12-22T05:21:17.349Z,100233.75
2022-12-22T05:23:45.552Z,100235.50
2022-12-22T05:26:14.841Z,100240.75
2022-12-22T05:28:44.580Z,100243.38
2022-12-22T05:31:17.652Z,100244.25
2022-12-22T05:33:47.667Z,100253.94
2022-12-22T05:36:15.072Z,100253.88
2022-12-22T05:38:42.503Z,100272.31
2022-12-22T05:41:09.499Z,100267.06
2022-12-22T05:43:37.500Z,100284.50
2022-12-22T05:46:07.417Z,100285.44
2022-12-22T05:48:38.552Z,100287.09
2022-12-22T05:51:08.710Z,100295.84
2022-12-22T05:53:36.514Z,100297.56
2022-12-22T05:56:03.633Z,100304.56
2022-12-22T05:58:30.638Z,100300.22
2022-12-22T06:01:00.200Z,100311.59
2022-12-22T06:03:29.233Z,100316.00
2022-12-22T06:05:56.935Z,100308.06
2022-12-22T06:08:24.225Z,100327.25
2022-12-22T06:10:53.679Z,100328.13
2022-12-22T06:13:20.680Z,100328.16
2022-12-22T06:15:49.705Z,100332.53
2022-12-22T06:18:17.463Z,100329.06
2022-12-22T06:20:46.993Z,100335.13
2022-12-22T06:23:14.146Z,100350.06
2022-12-22T06:25:41.121Z,100349.13
2022-12-22T06:28:08.135Z,100354.38
2022-12-22T06:30:35.108Z,100354.38
2022-12-22T06:33:02.118Z,100358.69
2022-12-22T06:35:29.337Z,100356.06
2022-12-22T06:37:56.317Z,100369.19
2022-12-22T06:40:23.433Z,100366.56
2022-12-22T06:43:09.591Z,100376.16
2022-12-22T06:45:43.252Z,100394.34
2022-12-22T06:48:12.376Z,100395.91
2022-12-22T06:50:39.904Z,100395.41
2022-12-22T06:53:07.772Z,100414.00
2022-12-22T06:55:35.306Z,100412.34
2022-12-22T06:58:02.523Z,100413.28
2022-12-22T07:00:29.742Z,100401.06
2022-12-22T07:02:56.915Z,100402.03
2022-12-22T07:05:24.646Z,100402.03
2022-12-22T07:07:52.403Z,100407.31
2022-12-22T07:10:39.571Z,100404.69
2022-12-22T07:13:19.380Z,100396.78
2022-12-22T07:15:52.339Z,100390.66
2022-12-22T07:18:24.949Z,100388.91
2022-12-22T07:20:52.053Z,100391.53
2022-12-22T07:23:19.029Z,100395.94
2022-12-22T07:25:46.108Z,100390.66
2022-12-22T07:28:18.366Z,100396.81
2022-12-22T07:30:47.532Z,100388.03
2022-12-22T07:33:14.550Z,100394.19
2022-12-22T07:35:41.558Z,100419.69
2022-12-22T07:38:08.523Z,100413.53
2022-12-22T07:40:39.616Z,100417.94
2022-12-22T07:43:09.009Z,100423.19
2022-12-22T07:45:36.526Z,100417.91
2022-12-22T07:48:27.031Z,100424.97
2022-12-22T07:50:56.857Z,100428.50
2022-12-22T07:53:23.879Z,100432.91
2022-12-22T07:55:50.921Z,100439.94
2022-12-22T07:58:17.881Z,100434.66
2022-12-22T08:00:44.931Z,100439.06
2022-12-22T08:03:11.958Z,100434.66
2022-12-22T08:05:39.088Z,100449.59
2022-12-22T08:08:06.186Z,100454.88
2022-12-22T08:10:33.358Z,100457.50
2022-12-22T08:13:00.419Z,100460.16
2022-12-22T08:15:27.470Z,100461.91
2022-12-22T08:17:54.398Z,100464.56
2022-12-22T08:20:21.350Z,100490.06
2022-12-22T08:22:48.300Z,100491.81
2022-12-22T08:25:15.305Z,100494.44
2022-12-22T08:27:51.274Z,100508.53
2022-12-22T08:30:18.508Z,100521.72
2022-12-22T08:32:49.387Z,100532.28
2022-12-22T08:35:16.678Z,100527.00
2022-12-22T08:37:46.657Z,100529.63
2022-12-22T08:40:28.780Z,100538.44
2022-12-22T08:43:02.738Z,100549.00
2022-12-22T08:45:29.797Z,100553.38
2022-12-22T08:47:56.881Z,100547.22
2022-12-22T08:50:23.950Z,100545.47
2022-12-22T08:52:50.962Z,100543.72
2022-12-22T08:55:18.110Z,100533.16
2022-12-22T08:57:55.866Z,100541.94
2022-12-22T09:00:23.824Z,100536.66
2022-12-22T09:02:51.019Z,100545.47
2022-12-22T09:05:18.995Z,100550.75
2022-12-22T09:07:49.191Z,100555.16
2022-12-22T09:10:16.341Z,100559.53
2022-12-22T09:12:43.306Z,100553.38
2022-12-22T09:15:11.005Z,100550.75
2022-12-22T09:17:38.143Z,100556.91
2022-12-22T09:20:06.612Z,100552.50
2022-12-22T09:22:33.595Z,100556.91
2022-12-22T09:25:00.589Z,100566.56
2022-12-22T09:27:27.553Z,100578.03
2022-12-22T09:29:54.988Z,100592.97
2022-12-22T09:32:23.077Z,100590.31
2022-12-22T09:34:50.161Z,100597.38
2022-12-22T09:37:17.644Z,100607.91
2022-12-22T09:39:45.814Z,100602.66
2022-12-22T09:42:20.920Z,100600.00
2022-12-22T09:44:51.819Z,100592.97
2022-12-22T09:47:21.655Z,100598.25
2022-12-22T09:49:49.117Z,100595.63
2022-12-22T09:52:48.461Z,100585.97
2022-12-22T09:55:45.660Z,100593.00
2022-12-22T09:58:25.784Z,100594.72
2022-12-22T10:01:08.210Z,100591.22
2022-12-22T10:03:55.097Z,100589.44
2022-12-22T10:06:39.280Z,100601.78
2022-12-22T10:09:49.033Z,100599.13
2022-12-22T10:12:19.545Z,100601.78
2022-12-22T10:14:49.705Z,100589.44
2022-12-22T10:17:21.262Z,100602.66
2022-12-22T10:19:51.022Z,100601.78
2022-12-22T10:22:35.059Z,100606.22
2022-12-22T10:25:05.498Z,100613.25
2022-12-22T10:27:41.937Z,100619.41
2022-12-22T10:30:35.853Z,100616.78
2022-12-22T10:33:12.670Z,100622.94
2022-12-22T10:35:46.931Z,100629.09
2022-12-22T10:38:22.223Z,100625.56
2022-12-22T10:41:13.150Z,100630.84
2022-12-22T10:43:51.946Z,100626.44
2022-12-22T10:46:38.824Z,100620.28
2022-12-22T10:49:26.482Z,100624.69
2022-12-22T10:52:09.113Z,100629.97
2022-12-22T10:54:37.213Z,100631.72
2022-12-22T10:57:25.936Z,100624.69
2022-12-22T11:00:02.658Z,100634.38
2022-12-22T11:02:39.673Z,100629.09
2022-12-22T11:05:11.615Z,100621.16
2022-12-22T11:07:45.988Z,100623.81
2022-12-22T11:10:33.218Z,100626.44
2022-12-22T11:13:21.550Z,100627.31
2022-12-22T11:16:25.210Z,100626.44
2022-12-22T11:19:18.300Z,100626.44
2022-12-22T11:22:10.341Z,100639.63
2022-12-22T11:24:44.152Z,100637.00
2022-12-22T11:27:42.332Z,100641.41
2022-12-22T11:30:20.005Z,100629.09
2022-12-22T11:33:42.950Z,100629.09
2022-12-22T11:36:23.793Z,100618.53
2022-12-22T11:39:36.845Z,100608.84
2022-12-22T11:42:48.268Z,100615.00
2022-12-22T11:45:52.961Z,100600.94
2022-12-22T11:48:49.763Z,100613.25
2022-12-22T11:51:35.096Z,100609.72
2022-12-22T11:54:38.913Z,100600.06
2022-12-22T11:57:49.970Z,100605.34
2022-12-22T12:00:19.522Z,100610.63
2022-12-22T12:03:22.519Z,100602.69
2022-12-22T12:05:58.326Z,100603.56
2022-12-22T12:09:12.351Z,100592.13
2022-12-22T12:12:07.623Z,100580.69
2022-12-22T12:14:39.667Z,100575.41
2022-12-22T12:17:39.962Z,100570.16
2022-12-22T12:20:46.017Z,100572.78
2022-12-22T12:23:20.238Z,100567.50
2022-12-22T12:26:32.191Z,100561.34
2022-12-22T12:29:16.112Z,100568.38
2022-12-22T12:31:53.562Z,100557.81
2022-12-22T12:34:22.560Z,100552.53
2022-12-22T12:37:14.008Z,100551.66
2022-12-22T12:40:23.981Z,100553.44
2022-12-22T12:42:52.730Z,100548.16
2022-12-22T12:45:34.937Z,100540.22
2022-12-22T12:48:20.613Z,100546.38
2022-12-22T12:50:52.218Z,100549.03
2022-12-22T12:53:27.341Z,100542.88
2022-12-22T12:56:02.225Z,100542.88
2022-12-22T12:58:50.072Z,100546.38
2022-12-22T13:01:19.812Z,100544.63
2022-12-22T13:04:07.296Z,100543.75
2022-12-22T13:06:53.562Z,100534.06
2022-12-22T13:12:49.153Z,100526.16
2022-12-22T13:15:39.375Z,100529.66
2022-12-22T13:18:25.116Z,100517.34
2022-12-22T13:21:51.075Z,100517.34
2022-12-22T13:24:23.975Z,100523.50
2022-12-22T13:26:55.291Z,100514.72
2022-12-22T13:29:22.240Z,100515.59
2022-12-22T13:32:15.875Z,100505.91
2022-12-22T13:35:29.218Z,100509.44
2022-12-22T13:37:47.393Z,100499.75
2022-12-22T13:40:19.281Z,100493.59
2022-12-22T13:43:17.787Z,100487.44
2022-12-22T13:45:54.289Z,100478.66
2022-12-22T13:48:45.747Z,100479.53
2022-12-22T13:51:22.190Z,100483.91
2022-12-22T13:54:09.871Z,100471.59
2022-12-22T13:56:51.438Z,100472.47
2022-12-22T13:59:40.526Z,100460.16
2022-12-22T14:02:11.342Z,100457.53
2022-12-22T14:04:42.336Z,100459.28
2022-12-22T14:07:19.098Z,100459.28
2022-12-22T14:09:54.962Z,100454.88
2022-12-22T14:12:30.372Z,100447.84
2022-12-22T14:15:05.129Z,100441.69
2022-12-22T14:17:36.639Z,100438.16
2022-12-22T14:20:26.236Z,100437.28
2022-12-22T14:23:22.598Z,100434.66
2022-12-22T14:25:51.214Z,100426.72
2022-12-22T14:28:50.157Z,100424.97
2022-12-22T14:31:18.478Z,100423.22
2022-12-22T14:34:05.138Z,100417.94
2022-12-22T14:36:41.564Z,100418.81
2022-12-22T14:39:27.310Z,100414.41
2022-12-22T14:41:58.287Z,100410.00
2022-12-22T14:44:35.045Z,100411.78
2022-12-22T14:47:20.381Z,100408.25
2022-12-22T14:50:04.612Z,100417.06
2022-12-22T14:53:02.088Z,100402.09
2022-12-22T14:55:41.764Z,100401.22
2022-12-22T14:58:20.382Z,100402.09
2022-12-22T15:01:09.505Z,100386.25
2022-12-22T15:03:38.452Z,100384.50
2022-12-22T15:06:26.687Z,100380.09
2022-12-22T15:09:13.773Z,100384.50
2022-12-22T15:12:02.270Z,100381.84
2022-12-22T15:14:38.455Z,100373.06
2022-12-22T15:17:14.677Z,100368.66
2022-12-22T15:19:41.704Z,100373.06
2022-12-22T15:22:08.893Z,100366.03
2022-12-22T15:24:35.928Z,100366.03
2022-12-22T15:27:02.993Z,100358.09
2022-12-22T15:29:29.973Z,100351.06
2022-12-22T15:31:57.078Z,100347.53
2022-12-22T15:34:27.759Z,100340.50
2022-12-22T15:36:54.998Z,100344.91
2022-12-22T15:39:22.752Z,100345.78
2022-12-22T15:41:50.056Z,100336.97
2022-12-22T15:44:17.333Z,100341.38
2022-12-22T15:46:52.749Z,100336.09
2022-12-22T15:49:24.552Z,100328.19
2022-12-22T15:52:00.687Z,100332.56
2022-12-22T15:54:29.706Z,100328.19
2022-12-22T15:56:58.760Z,100318.50
2022-12-22T15:59:29.259Z,100321.13
2022-12-22T16:02:01.288Z,100336.94
2022-12-22T16:04:29.394Z,100342.72
2022-12-22T16:06:57.225Z,100354.88
2022-12-22T16:09:28.963Z,100357.38
2022-12-22T16:11:56.902Z,100363.47
2022-12-22T16:14:24.690Z,100373.97
2022-12-22T16:16:51.850Z,100380.97
2022-12-22T16:19:19.487Z,100376.59
2022-12-22T16:21:52.009Z,100384.47
2022-12-22T16:24:31.729Z,100388.84
2022-12-22T16:27:00.347Z,100376.56
2022-12-22T16:29:27.861Z,100386.22
2022-12-22T16:32:27.271Z,100379.25
2022-12-22T16:35:19.340Z,100378.38
2022-12-22T16:37:49.093Z,100371.41
2022-12-22T16:40:19.770Z,100372.28
2022-12-22T16:46:16.088Z,100367.88
2022-12-22T16:48:59.764Z,100366.16
2022-12-22T16:51:37.306Z,100360.91
2022-12-22T16:54:04.638Z,100366.19
2022-12-22T16:56:32.170Z,100365.28
2022-12-22T16:59:00.865Z,100360.94
2022-12-22T17:01:52.222Z,100362.75
2022-12-22T17:04:28.499Z,100362.81
2022-12-22T17:06:58.405Z,100354.00
2022-12-22T17:09:47.513Z,100366.25
2022-12-22T17:12:24.691Z,100355.75
2022-12-22T17:14:54.012Z,100353.13
2022-12-22T17:17:30.345Z,100347.88
2022-12-22T17:20:00.060Z,100343.53
2022-12-22T17:22:31.330Z,100346.19
2022-12-22T17:25:03.074Z,100340.94
2022-12-22T17:27:32.647Z,100343.56
2022-12-22T17:30:03.554Z,100336.59
2022-12-22T17:32:30.602Z,100335.72
2022-12-22T17:34:57.864Z,100333.97
2022-12-22T17:37:24.906Z,100332.22
2022-12-22T17:40:02.418Z,100327.91
2022-12-22T17:42:31.630Z,100334.03
2022-12-22T17:44:58.921Z,100321.81
2022-12-22T17:47:33.235Z,100331.44
2022-12-22T17:50:03.358Z,100325.31
2022-12-22T17:52:30.444Z,100321.00
2022-12-22T17:54:57.571Z,100310.53
2022-12-22T17:57:30.911Z,100312.31
2022-12-22T17:59:58.177Z,100314.09
2022-12-22T18:02:26.001Z,100320.25
2022-12-22T18:04:53.609Z,100320.28
2022-12-22T18:07:23.892Z,100307.19
2022-12-22T18:09:57.465Z,100306.34
2022-12-22T18:12:24.990Z,100314.25
2022-12-22T18:14:52.800Z,100316.88
2022-12-22T18:17:35.560Z,100304.63
2022-12-22T18:20:03.115Z,100301.09
2022-12-22T18:22:30.850Z,100298.47
2022-12-22T18:24:58.160Z,100301.97
2022-12-22T18:27:25.460Z,100301.97
2022-12-22T18:29:52.513Z,100300.22
2022-12-22T18:32:27.014Z,100303.75
2022-12-22T18:34:54.956Z,100301.97
2022-12-22T18:37:22.056Z,100306.31
2022-12-22T18:39:49.071Z,100312.47
2022-12-22T18:42:21.394Z,100308.94
2022-12-22T18:44:50.307Z,100313.38
2022-12-22T18:47:17.552Z,100311.59
2022-12-22T18:49:45.368Z,100302.84
2022-12-22T18:52:22.327Z,100315.97
2022-12-22T18:54:50.118Z,100315.06
2022-12-22T18:57:20.044Z,100310.72
2022-12-22T18:59:48.300Z,100318.59
2022-12-22T19:02:28.952Z,100315.91
2022-12-22T19:04:57.076Z,100309.78
2022-12-22T19:07:25.910Z,100313.31
2022-12-22T19:09:52.926Z,100315.94
2022-12-22T19:12:23.225Z,100320.31
2022-12-22T19:14:55.262Z,100315.91
2022-12-22T19:17:26.349Z,100309.78
2022-12-22T19:19:53.441Z,100324.66
2022-12-22T19:22:20.718Z,100311.53
2022-12-22T19:24:49.014Z,100317.66
2022-12-22T19:27:27.459Z,100318.53
2022-12-22T19:30:03.571Z,100327.31
2022-12-22T19:32:41.807Z,100318.53
2022-12-22T19:35:24.465Z,100323.81
2022-12-22T19:37:54.220Z,100321.16
2022-12-22T19:40:30.531Z,100317.66
2022-12-22T19:42:58.215Z,100308.91
2022-12-22T19:45:30.701Z,100306.25
2022-12-22T19:47:58.129Z,100310.63
2022-12-22T19:50:28.391Z,100308.88
2022-12-22T19:52:58.713Z,100313.25
2022-12-22T19:55:32.329Z,100311.53
2022-12-22T19:58:00.605Z,100308.88
2022-12-22T20:00:28.265Z,100316.78
2022-12-22T20:02:57.390Z,100302.75
2022-12-22T20:05:24.337Z,100313.25
2022-12-22T20:07:53.381Z,100314.97
2022-12-22T20:10:22.155Z,100316.75
2022-12-22T20:12:52.598Z,100321.13
2022-12-22T20:15:22.946Z,100321.97
2022-12-22T20:17:54.556Z,100320.25
2022-12-22T20:20:35.452Z,100322.84
2022-12-22T20:23:07.285Z,100319.34
2022-12-22T20:25:41.268Z,100325.50
2022-12-22T20:28:39.069Z,100322.84
2022-12-22T20:31:08.324Z,100321.09
2022-12-22T20:33:35.345Z,100323.75
2022-12-22T20:36:04.072Z,100322.88
2022-12-22T20:38:41.910Z,100321.09
2022-12-22T20:41:10.690Z,100321.09
2022-12-22T20:43:38.718Z,100320.25
2022-12-22T20:46:24.762Z,100318.50
2022-12-22T20:48:55.966Z,100315.00
2022-12-22T20:51:26.799Z,100327.25
2022-12-22T20:53:54.756Z,100318.47
2022-12-22T20:56:33.977Z,100328.09
2022-12-22T20:59:20.931Z,100319.34
2022-12-22T21:01:50.388Z,100317.59
2022-12-22T21:04:18.401Z,100314.09
2022-12-22T21:06:57.043Z,100308.00
2022-12-22T21:09:24.709Z,100316.75
2022-12-22T21:11:51.759Z,100316.75
2022-12-22T21:14:18.865Z,100315.88
2022-12-22T21:16:45.962Z,100315.88
2022-12-22T21:19:18.202Z,100312.34
2022-12-22T21:21:45.474Z,100319.38
2022-12-22T21:24:12.469Z,100310.59
2022-12-22T21:26:47.350Z,100327.25
2022-12-22T21:29:25.619Z,100324.63
2022-12-22T21:31:53.989Z,100325.50
2022-12-22T21:34:21.303Z,100319.34
2022-12-22T21:37:02.883Z,100323.75
2022-12-22T21:39:39.406Z,100319.34
2022-12-22T21:42:07.729Z,100317.59
2022-12-22T21:44:35.847Z,100311.44
2022-12-22T21:47:03.076Z,100311.47
2022-12-22T21:49:32.575Z,100319.38
2022-12-22T21:52:00.076Z,100317.59
2022-12-22T21:54:27.467Z,100328.13
2022-12-22T21:56:55.032Z,100329.88
2022-12-22T21:59:22.713Z,100326.38
2022-12-22T22:01:52.929Z,100332.50
2022-12-22T22:04:21.186Z,100329.88
2022-12-22T22:06:48.228Z,100330.75
2022-12-22T22:09:15.193Z,100335.16
2022-12-22T22:12:17.222Z,100337.78
2022-12-22T22:14:44.269Z,100346.53
2022-12-22T22:17:11.868Z,100349.16
2022-12-22T22:19:38.824Z,100342.16
2022-12-22T22:22:05.868Z,100340.41
2022-12-22T22:24:32.912Z,100343.06
2022-12-22T22:26:59.873Z,100343.06
2022-12-22T22:29:26.907Z,100341.28
2022-12-22T22:31:53.916Z,100343.06
2022-12-22T22:34:20.928Z,100359.72
2022-12-22T22:36:47.935Z,100353.56
2022-12-22T22:39:14.990Z,100360.59
2022-12-22T22:41:43.660Z,100359.69
2022-12-22T22:44:11.527Z,100356.19
2022-12-22T22:46:38.586Z,100351.81
2022-12-22T22:49:05.618Z,100351.81
2022-12-22T22:51:32.828Z,100357.94
2022-12-22T22:54:00.111Z,100366.72
2022-12-22T22:56:27.085Z,100360.56
2022-12-22T22:58:54.312Z,100363.19
2022-12-22T23:01:21.453Z,100364.94
2022-12-22T23:03:48.596Z,100365.81
2022-12-22T23:06:15.796Z,100366.69
2022-12-22T23:08:42.837Z,100366.69
2022-12-22T23:11:16.961Z,100368.44
2022-12-22T23:13:44.239Z,100365.81
2022-12-22T23:16:11.268Z,100371.94
2022-12-22T23:18:39.060Z,100367.56
2022-12-22T23:21:09.433Z,100369.28
2022-12-22T23:23:36.661Z,100368.44
2022-12-22T23:26:04.886Z,100357.03
2022-12-22T23:28:32.741Z,100361.44
2022-12-22T23:30:59.796Z,100358.78
2022-12-22T23:33:26.817Z,100361.44
2022-12-22T23:35:53.858Z,100359.69
2022-12-22T23:38:21.180Z,100358.78
2022-12-22T23:40:53.445Z,100362.31
2022-12-22T23:43:22.319Z,100364.94
2022-12-22T23:45:49.412Z,100362.31
2022-12-22T23:48:16.720Z,100371.06
2022-12-22T23:50:48.943Z,100357.03
2022-12-22T23:53:17.358Z,100371.06
2022-12-22T23:55:49.278Z,100368.44
2022-12-22T23:58:16.862Z,100378.94
